Time;durP1;ratioP1;P1;durP2;ratioP2;P2;SDS_P1;SDS_P2;PMS_P1;PMS_P2;Temp;Humidity;BMP_temperature;BMP_pressure;BME280_temperature;BME280_humidity;BME280_pressure;Samples;Min_cycle;Max_cycle;Signal;HPM_P1;HPM_P2
2023/04/06 00:00:17;;;;;;;1.40;1.10;;;;;;;17.63;38.31;101555.38;20743391;28;20081;-81
2023/04/06 00:10:19;;;;;;;1.02;0.93;;;;;;;17.65;38.30;101551.63;20704763;28;20045;-81
2023/04/06 00:20:21;;;;;;;1.83;1.17;;;;;;;17.64;38.41;101540.94;20714557;28;20422;-81
2023/04/06 00:30:22;;;;;;;1.52;1.10;;;;;;;17.63;38.19;101537.41;20726418;28;20056;-81
2023/04/06 00:40:24;;;;;;;1.40;1.10;;;;;;;17.62;38.17;101526.75;20739153;28;20041;-80
2023/04/06 00:50:26;;;;;;;1.10;0.95;;;;;;;17.59;37.97;101516.22;20743512;28;20041;-81
2023/04/06 01:00:28;;;;;;;1.20;1.00;;;;;;;17.60;38.09;101501.78;20735994;28;20042;-81
2023/04/06 01:10:34;;;;;;;1.10;0.90;;;;;;;17.59;38.08;101492.84;20741474;28;20085;-80
2023/04/06 01:20:59;;;;;;;1.20;1.00;;;;;;;17.58;38.09;101475.00;20721205;28;20064;-80
2023/04/06 01:31:02;;;;;;;1.75;1.23;;;;;;;17.25;38.01;101420.13;20699872;28;20045;-80
2023/04/06 01:41:15;;;;;;;1.40;1.30;;;;;;;17.57;38.17;101462.50;20722734;28;20112;-80
2023/04/06 01:51:24;;;;;;;1.35;1.05;;;;;;;17.56;38.17;101454.53;20723089;28;20469;-80
2023/04/06 02:01:30;;;;;;;1.23;0.85;;;;;;;17.56;38.04;101454.53;20707855;28;20054;-80
2023/04/06 02:11:32;;;;;;;1.70;1.00;;;;;;;17.55;38.19;101445.63;20711997;28;20070;-80
2023/04/06 02:21:34;;;;;;;0.98;0.88;;;;;;;17.54;37.99;101431.28;20734613;28;20049;-80
2023/04/06 02:31:36;;;;;;;0.95;0.90;;;;;;;17.42;38.03;101412.53;20770056;28;20239;-80
2023/04/06 02:41:39;;;;;;;1.42;1.25;;;;;;;17.52;37.97;101424.31;20751186;28;20124;-80
2023/04/06 02:51:42;;;;;;;1.23;0.80;;;;;;;17.48;38.13;101407.53;20735319;28;20453;-80
2023/04/06 03:01:51;;;;;;;1.42;1.00;;;;;;;17.52;38.11;101403.63;20745755;28;20144;-80
2023/04/06 03:11:53;;;;;;;2.03;1.30;;;;;;;17.51;38.10;101406.47;20765776;28;20065;-80
2023/04/06 03:21:57;;;;;;;1.10;1.00;;;;;;;17.51;38.12;101406.47;20748612;28;20050;-81
2023/04/06 03:31:59;;;;;;;1.88;1.10;;;;;;;17.50;38.02;101393.97;20759109;28;20041;-81
2023/04/06 03:42:08;;;;;;;1.20;1.00;;;;;;;17.49;38.13;101394.97;20734938;28;20081;-80
2023/04/06 03:52:13;;;;;;;1.15;0.90;;;;;;;17.47;38.17;101394.22;20743633;28;20570;-80
2023/04/06 04:02:15;;;;;;;1.67;1.00;;;;;;;17.47;37.85;101391.53;20735351;28;20045;-81
2023/04/06 04:12:17;;;;;;;1.52;1.20;;;;;;;17.46;37.90;101384.44;20729817;28;20054;-80
2023/04/06 04:22:18;;;;;;;1.45;1.20;;;;;;;17.45;37.90;101388.06;20722868;28;20112;-80
2023/04/06 04:32:21;;;;;;;1.55;1.08;;;;;;;17.44;37.91;101384.53;20714487;28;20050;-80
2023/04/06 04:42:24;;;;;;;1.30;0.80;;;;;;;17.43;37.98;101379.28;20707385;28;20095;-80
2023/04/06 04:52:29;;;;;;;;;;;;;;;17.43;37.80;101379.28;20743225;28;20061;-80
2023/04/06 05:02:41;;;;;;;1.58;1.15;;;;;;;17.40;37.76;101378.53;20749787;28;19925;-79
2023/04/06 05:12:48;;;;;;;1.70;1.30;;;;;;;17.40;37.74;101375.00;20724474;28;20140;-79
2023/04/06 05:22:50;;;;;;;1.88;0.98;;;;;;;17.42;37.76;101374.88;20726668;28;20042;-80
2023/04/06 05:32:52;;;;;;;1.63;1.20;;;;;;;17.37;37.55;101364.47;20712038;28;20045;-85
2023/04/06 05:42:56;;;;;;;1.55;1.00;;;;;;;17.40;37.56;101369.63;20703299;28;20108;-80
2023/04/06 05:52:58;;;;;;;1.50;1.38;;;;;;;17.35;37.64;101358.38;20718165;28;20049;-89
2023/04/06 06:03:05;;;;;;;1.42;1.20;;;;;;;17.41;37.31;101355.19;20695310;28;20096;-87
2023/04/06 06:13:09;;;;;;;1.73;1.30;;;;;;;17.16;38.08;101300.59;20717335;28;20038;-85
2023/04/06 06:23:12;;;;;;;1.48;1.38;;;;;;;17.46;37.88;101352.13;20754709;28;20533;-85
2023/04/06 06:33:14;;;;;;;1.70;1.40;;;;;;;17.46;37.86;101344.06;20736466;28;20068;-85
2023/04/06 06:43:16;;;;;;;2.10;1.23;;;;;;;17.47;37.96;101357.38;20762888;28;20534;-86
2023/04/06 06:53:25;;;;;;;1.80;1.50;;;;;;;17.38;37.71;101341.97;20712879;28;20498;-85
2023/04/06 07:03:27;;;;;;;2.50;1.75;;;;;;;17.46;37.59;101339.53;20734966;28;20406;-85
2023/04/06 07:13:29;;;;;;;1.60;1.50;;;;;;;17.48;37.42;101332.19;20752940;28;20466;-85
2023/04/06 07:23:32;;;;;;;2.63;1.75;;;;;;;17.56;37.38;101330.69;20752197;28;20474;-85
2023/04/06 07:33:34;;;;;;;1.95;1.65;;;;;;;17.58;37.37;101326.03;20734688;28;20061;-85
2023/04/06 07:43:37;;;;;;;1.88;1.50;;;;;;;17.59;37.26;101327.75;20718407;28;20092;-85
2023/04/06 07:53:40;;;;;;;2.72;1.83;;;;;;;17.57;37.62;101319.81;20733773;28;20050;-85
2023/04/06 08:03:42;;;;;;;2.10;1.77;;;;;;;17.60;37.54;101313.31;20726297;28;20042;-85
2023/04/06 08:13:44;;;;;;;2.20;1.88;;;;;;;17.66;37.59;101310.13;20723232;28;20526;-85
2023/04/06 08:23:46;;;;;;;2.60;2.00;;;;;;;17.68;37.70;101316.28;20731223;28;20064;-85
2023/04/06 08:33:48;;;;;;;2.22;1.70;;;;;;;17.69;37.79;101296.44;20726418;28;20141;-85
2023/04/06 08:43:52;;;;;;;2.25;1.75;;;;;;;17.72;37.83;101306.09;20727944;28;20046;-86
2023/04/06 08:53:56;;;;;;;1.70;1.50;;;;;;;17.73;38.04;101287.13;20762526;28;20153;-85
2023/04/06 09:04:00;;;;;;;2.85;1.70;;;;;;;17.61;38.03;101274.63;20760676;28;20042;-85
2023/04/06 09:14:02;;;;;;;2.23;1.90;;;;;;;17.71;37.96;101286.41;20744499;28;20049;-85
2023/04/06 09:24:06;;;;;;;3.17;2.10;;;;;;;17.63;37.85;101273.56;20761911;28;20058;-85
2023/04/06 09:34:08;;;;;;;2.23;1.90;;;;;;;17.69;37.86;101272.22;20767011;28;20077;-86
2023/04/06 09:44:12;;;;;;;2.67;2.03;;;;;;;17.67;37.82;101264.25;20768354;28;20050;-86
2023/04/06 09:54:19;;;;;;;2.97;2.28;;;;;;;17.66;37.94;101256.28;20768608;28;20428;-86
2023/04/06 10:04:43;;;;;;;3.42;2.13;;;;;;;17.65;37.69;101252.75;20778512;28;20517;-86
2023/04/06 10:14:45;;;;;;;3.38;2.85;;;;;;;17.62;37.79;101238.66;20781994;28;20050;-86
2023/04/06 10:24:46;;;;;;;3.13;2.65;;;;;;;17.66;38.10;101248.19;20761749;28;20050;-86
2023/04/06 10:34:48;;;;;;;3.38;2.78;;;;;;;17.66;37.85;101246.38;20773960;28;20088;-85
2023/04/06 10:44:50;;;;;;;3.85;2.85;;;;;;;17.66;37.92;101234.72;20771314;28;20406;-86
2023/04/06 10:54:52;;;;;;;3.85;3.30;;;;;;;17.65;37.98;101220.44;20765246;28;20116;-86
2023/04/06 11:04:56;;;;;;;3.65;2.90;;;;;;;17.66;37.96;101221.28;20767786;28;20069;-85
2023/04/06 11:15:06;;;;;;;4.40;3.33;;;;;;;17.63;37.90;101219.69;20768940;28;20149;-85
2023/04/06 11:25:08;;;;;;;6.35;3.28;;;;;;;17.60;37.96;101200.25;20740629;28;20072;-90
2023/04/06 11:35:19;;;;;;;3.72;3.28;;;;;;;17.66;37.98;101205.13;20745341;28;20137;-90
2023/04/06 11:45:21;;;;;;;4.43;3.33;;;;;;;17.69;38.14;101204.88;20762547;28;20046;-88
2023/04/06 11:55:23;;;;;;;3.88;2.83;;;;;;;17.88;38.68;101187.19;20747992;28;20046;-89
2023/04/06 12:05:24;;;;;;;3.05;2.50;;;;;;;18.01;38.41;101184.34;20733353;28;20555;-88
2023/04/06 12:15:26;;;;;;;3.75;3.25;;;;;;;18.06;38.20;101177.56;20746514;28;20057;-88
2023/04/06 12:25:28;;;;;;;3.95;2.80;;;;;;;18.17;38.19;101182.03;20746454;28;20061;-89
2023/04/06 12:35:35;;;;;;;3.42;2.38;;;;;;;18.20;38.00;101171.00;20745683;28;20049;-88
2023/04/06 12:45:36;;;;;;;;;;;;;;;18.24;37.92;101168.91;20746981;28;20521;-89
2023/04/06 12:55:38;;;;;;;3.83;3.17;;;;;;;18.24;37.73;101161.66;20742815;28;19964;-87
2023/04/06 13:05:44;;;;;;;3.60;3.30;;;;;;;18.25;37.61;101146.34;20719739;28;20060;-88
2023/04/06 13:15:46;;;;;;;4.15;3.30;;;;;;;18.28;37.53;101135.31;20744916;28;20089;-89
2023/04/06 13:25:48;;;;;;;3.78;3.22;;;;;;;18.29;37.57;101133.44;20733107;28;20080;-88
2023/04/06 13:35:50;;;;;;;4.65;3.20;;;;;;;18.32;37.53;101135.88;20727133;28;20395;-88
2023/04/06 13:45:57;;;;;;;3.50;2.80;;;;;;;18.23;37.42;101116.84;20743343;28;20129;-88
2023/04/06 13:55:59;;;;;;;3.17;2.63;;;;;;;18.33;37.58;101140.28;20744106;28;20112;-88
2023/04/06 14:06:09;;;;;;;3.35;2.53;;;;;;;18.32;37.58;101139.44;20730222;28;20046;-88
2023/04/06 14:16:19;;;;;;;2.83;2.20;;;;;;;18.33;37.65;101142.97;20755885;28;20046;-88
2023/04/06 14:26:21;;;;;;;2.88;2.28;;;;;;;18.32;37.74;101142.13;20750117;28;20356;-89
2023/04/06 14:36:23;;;;;;;2.28;1.70;;;;;;;18.18;37.94;101129.00;20745337;28;20064;-89
2023/04/06 14:46:26;;;;;;;3.08;1.83;;;;;;;18.14;38.28;101143.75;20769384;28;20041;-90
2023/04/06 14:56:28;;;;;;;2.80;2.00;;;;;;;18.05;38.41;101146.22;20754407;28;20085;-95
2023/04/06 15:06:31;;;;;;;1.48;1.38;;;;;;;17.97;38.69;101135.22;20754883;28;20056;-92
2023/04/06 15:16:33;;;;;;;2.80;1.85;;;;;;;17.79;38.75;101116.97;20721727;28;20092;-88
2023/04/06 15:26:36;;;;;;;1.98;1.63;;;;;;;17.79;39.04;101122.34;20719300;28;20454;-86
2023/04/06 15:36:38;;;;;;;1.80;1.58;;;;;;;17.87;39.18;101134.28;20737215;28;20078;-88
2023/04/06 15:46:40;;;;;;;1.63;1.52;;;;;;;17.83;39.39;101141.78;20736934;28;20617;-85
2023/04/06 15:56:42;;;;;;;2.08;1.70;;;;;;;17.69;39.72;101129.50;20699712;28;20046;-84
2023/04/06 16:06:43;;;;;;;2.58;2.03;;;;;;;17.79;40.30;101157.34;20707889;28;20034;-88
2023/04/06 16:16:45;;;;;;;1.98;1.65;;;;;;;17.56;40.80;101134.19;20685237;28;20057;-86
2023/04/06 16:26:48;;;;;;;3.13;1.65;;;;;;;17.79;41.10;101165.44;20705106;28;20354;-95
2023/04/06 16:36:50;;;;;;;1.80;1.60;;;;;;;17.75;42.23;101172.06;20718663;28;20100;-94
2023/04/06 16:46:52;;;;;;;2.58;1.70;;;;;;;17.77;43.00;101170.09;20733920;28;20549;-92
2023/04/06 16:56:55;;;;;;;2.03;1.40;;;;;;;17.76;43.77;101173.78;20733071;28;20057;-89
2023/04/06 17:06:56;;;;;;;1.70;1.42;;;;;;;17.76;46.11;101165.69;20699333;28;20046;-87
2023/04/06 17:16:58;;;;;;;3.45;1.45;;;;;;;17.66;47.41;101135.97;20707582;28;20050;-89
2023/04/06 17:27:01;;;;;;;4.50;1.75;;;;;;;17.67;47.97;101136.81;20707753;28;20502;-91
2023/04/06 17:37:03;;;;;;;3.63;1.85;;;;;;;17.76;47.98;101163.00;20715152;28;20085;-85
2023/04/06 17:47:05;;;;;;;2.78;1.50;;;;;;;17.60;47.87;101139.19;20729040;28;20247;-88
2023/04/06 17:57:07;;;;;;;4.57;1.85;;;;;;;17.74;48.04;101164.97;20708183;28;20046;-81
2023/04/06 18:07:10;;;;;;;2.92;1.40;;;;;;;17.76;49.23;101163.00;20721731;28;20050;-81
2023/04/06 18:17:11;;;;;;;2.45;1.40;;;;;;;17.76;49.86;101168.38;20737538;28;20599;-82
2023/04/06 18:27:13;;;;;;;3.22;1.60;;;;;;;17.77;49.94;101164.72;20715408;28;20048;-87
2023/04/06 18:37:15;;;;;;;4.28;1.73;;;;;;;17.74;49.77;101151.50;20744724;28;20049;-86
2023/04/06 18:47:17;;;;;;;2.55;1.80;;;;;;;17.74;49.39;101159.59;20729194;28;20466;-86
2023/04/06 18:57:19;;;;;;;2.13;1.80;;;;;;;17.69;49.30;101159.13;20728356;28;20054;-86
2023/04/06 19:07:21;;;;;;;2.70;1.88;;;;;;;17.68;49.55;101152.03;20737642;28;20147;-86
2023/04/06 19:17:23;;;;;;;2.58;1.80;;;;;;;17.67;49.58;101155.66;20729886;28;20485;-86
2023/04/06 19:27:25;;;;;;;2.50;1.60;;;;;;;17.30;49.20;101096.84;20746108;28;20065;-86
2023/04/06 19:37:26;;;;;;;2.03;1.80;;;;;;;17.62;49.14;101150.69;20730664;28;20072;-86
2023/04/06 19:47:28;;;;;;;3.13;1.98;;;;;;;17.60;49.07;101141.00;20728813;28;20605;-86
2023/04/06 19:57:30;;;;;;;2.42;1.92;;;;;;;17.61;48.98;101143.59;20732614;28;20393;-86
2023/04/06 20:07:32;;;;;;;2.70;1.63;;;;;;;17.61;48.95;101153.50;20725684;28;20048;-86
2023/04/06 20:17:34;;;;;;;2.22;1.60;;;;;;;17.60;49.08;101157.16;20733043;28;20116;-86
2023/04/06 20:27:36;;;;;;;2.08;1.88;;;;;;;17.60;49.18;101151.78;20738533;28;20062;-86
2023/04/06 20:37:37;;;;;;;2.17;1.83;;;;;;;17.59;49.10;101152.78;20755379;28;20052;-85
2023/04/06 20:47:39;;;;;;;2.08;1.75;;;;;;;17.59;49.08;101144.69;20713151;28;20522;-86
2023/04/06 20:57:41;;;;;;;2.80;1.95;;;;;;;17.57;48.97;101138.59;20742771;28;20046;-86
2023/04/06 21:07:45;;;;;;;1.63;1.48;;;;;;;17.52;49.09;101129.06;20724594;28;20048;-86
2023/04/06 21:17:48;;;;;;;2.25;1.90;;;;;;;17.57;49.05;101127.81;20739278;28;20057;-86
2023/04/06 21:27:52;;;;;;;2.78;2.05;;;;;;;17.56;49.16;101123.41;20707400;28;20046;-86
2023/04/06 21:37:54;;;;;;;2.47;1.75;;;;;;;17.56;49.07;101123.41;20726889;28;20054;-85
2023/04/06 21:47:56;;;;;;;1.52;1.35;;;;;;;17.56;48.92;101112.66;20724038;28;20558;-86
2023/04/06 21:57:58;;;;;;;1.58;1.40;;;;;;;17.54;48.84;101108.25;20718564;28;20053;-86
2023/04/06 22:08:02;;;;;;;1.45;1.27;;;;;;;17.54;48.96;101099.34;20698916;28;20084;-86
2023/04/06 22:18:04;;;;;;;1.33;1.20;;;;;;;17.53;49.01;101093.06;20722359;28;20049;-86
2023/04/06 22:28:06;;;;;;;1.00;1.00;;;;;;;17.52;48.95;101091.38;20745930;28;20164;-86
2023/04/06 22:38:08;;;;;;;1.30;1.10;;;;;;;17.50;49.04;101087.13;20734396;28;20077;-87
2023/04/06 22:48:10;;;;;;;1.40;1.30;;;;;;;17.51;49.00;101095.06;20754081;28;20367;-86
2023/04/06 22:58:12;;;;;;;1.98;1.60;;;;;;;17.51;49.08;101092.34;20747729;28;20128;-86
2023/04/06 23:08:14;;;;;;;1.05;0.90;;;;;;;17.50;49.29;101093.34;20748658;28;20054;-86
2023/04/06 23:18:16;;;;;;;1.20;1.10;;;;;;;17.50;49.13;101090.66;20709954;28;20069;-86
2023/04/06 23:28:17;;;;;;;1.40;1.15;;;;;;;17.50;49.24;101093.34;20711792;28;20071;-85
2023/04/06 23:38:19;;;;;;;3.03;1.45;;;;;;;17.49;49.17;101086.25;20747004;28;20065;-86
2023/04/06 23:48:21;;;;;;;1.90;1.38;;;;;;;17.48;49.08;101089.09;20762415;28;20038;-85
2023/04/06 23:58:23;;;;;;;1.58;1.05;;;;;;;17.47;49.31;101088.22;20743766;28;20049;-86
